createdAt,value
2022-08-19T00:02:13.748Z,73.96
2022-08-19T00:04:41.225Z,73.93
2022-08-19T00:07:09.046Z,74.13
2022-08-19T00:09:36.188Z,74.22
2022-08-19T00:12:04.344Z,74.20
2022-08-19T00:14:35.531Z,74.29
2022-08-19T00:17:04.003Z,74.03
2022-08-19T00:19:32.473Z,73.92
2022-08-19T00:21:59.744Z,74.12
2022-08-19T00:24:29.666Z,74.36
2022-08-19T00:26:58.131Z,74.22
2022-08-19T00:29:45.094Z,73.92
2022-08-19T00:32:13.133Z,74.16
2022-08-19T00:34:41.053Z,74.12
2022-08-19T00:37:08.058Z,74.48
2022-08-19T00:39:35.422Z,75.00
2022-08-19T00:42:02.770Z,75.04
2022-08-19T00:44:31.357Z,75.06
2022-08-19T00:47:01.022Z,75.00
2022-08-19T00:49:46.977Z,75.24
2022-08-19T00:52:23.702Z,75.08
2022-08-19T00:54:53.295Z,75.42
2022-08-19T00:57:39.260Z,75.36
2022-08-19T01:00:15.293Z,75.44
2022-08-19T01:02:44.196Z,75.66
2022-08-19T01:05:21.843Z,75.75
2022-08-19T01:07:51.564Z,75.72
2022-08-19T01:10:25.591Z,75.98
2022-08-19T01:12:54.312Z,75.95
2022-08-19T01:15:28.579Z,76.12
2022-08-19T01:17:57.962Z,76.28
2022-08-19T01:20:26.082Z,76.04
2022-08-19T01:22:59.376Z,75.95
2022-08-19T01:25:39.496Z,76.17
2022-08-19T01:28:11.191Z,76.21
2022-08-19T01:30:38.881Z,76.03
2022-08-19T01:33:06.664Z,76.40
2022-08-19T01:35:37.930Z,75.91
2022-08-19T01:38:11.096Z,76.27
2022-08-19T01:40:43.152Z,76.12
2022-08-19T01:43:10.235Z,76.52
2022-08-19T01:45:40.163Z,76.26
2022-08-19T01:48:07.764Z,76.53
2022-08-19T01:50:36.435Z,76.40
2022-08-19T01:53:08.464Z,76.55
2022-08-19T01:55:41.567Z,76.17
2022-08-19T01:58:23.616Z,76.22
2022-08-19T02:00:51.012Z,76.55
2022-08-19T02:03:18.292Z,76.42
2022-08-19T02:05:46.719Z,76.88
2022-08-19T02:08:13.919Z,76.72
2022-08-19T02:10:44.581Z,76.47
2022-08-19T02:13:13.359Z,76.94
2022-08-19T02:15:40.899Z,77.07
2022-08-19T02:18:09.294Z,76.83
2022-08-19T02:20:38.213Z,77.07
2022-08-19T02:23:13.455Z,77.62
2022-08-19T02:25:42.647Z,77.31
2022-08-19T02:28:09.673Z,77.23
2022-08-19T02:30:41.970Z,77.27
2022-08-19T02:33:09.175Z,77.35
2022-08-19T02:35:36.272Z,77.14
2022-08-19T02:38:23.008Z,77.00
2022-08-19T02:40:54.111Z,77.21
2022-08-19T02:43:22.202Z,77.42
2022-08-19T02:45:51.088Z,77.26
2022-08-19T02:48:22.120Z,77.36
2022-08-19T02:50:56.373Z,77.26
2022-08-19T02:53:27.098Z,77.60
2022-08-19T02:55:54.715Z,77.36
2022-08-19T02:58:23.931Z,77.17
2022-08-19T03:00:56.910Z,77.19
2022-08-19T03:03:24.494Z,77.05
2022-08-19T03:05:56.450Z,77.27
2022-08-19T03:08:25.445Z,77.32
2022-08-19T03:10:53.990Z,77.22
2022-08-19T03:13:21.217Z,77.20
2022-08-19T03:15:49.671Z,77.11
2022-08-19T03:18:18.335Z,77.11
2022-08-19T03:20:57.149Z,77.04
2022-08-19T03:23:24.836Z,76.88
2022-08-19T03:26:02.786Z,77.14
2022-08-19T03:28:50.968Z,76.84
2022-08-19T03:31:45.549Z,77.33
2022-08-19T03:34:19.140Z,77.05
2022-08-19T03:36:48.150Z,77.35
2022-08-19T03:39:16.773Z,77.34
2022-08-19T03:41:48.475Z,77.25
2022-08-19T03:44:21.629Z,77.24
2022-08-19T03:46:52.818Z,77.36
2022-08-19T03:49:27.148Z,77.35
2022-08-19T03:51:58.350Z,77.12
2022-08-19T03:54:26.677Z,77.33
2022-08-19T03:56:56.390Z,77.44
2022-08-19T03:59:36.335Z,77.55
2022-08-19T04:02:10.226Z,77.63
2022-08-19T04:04:40.505Z,77.25
2022-08-19T04:07:09.372Z,77.40
2022-08-19T04:09:39.880Z,77.66
2022-08-19T04:12:10.121Z,77.47
2022-08-19T04:14:37.355Z,77.45
2022-08-19T04:17:06.010Z,77.74
2022-08-19T04:19:36.441Z,77.80
2022-08-19T04:22:05.098Z,77.68
2022-08-19T04:24:32.669Z,77.59
2022-08-19T04:27:02.953Z,77.37
2022-08-19T04:29:31.004Z,77.72
2022-08-19T04:31:59.561Z,77.97
2022-08-19T04:34:30.563Z,78.00
2022-08-19T04:36:59.885Z,77.99
2022-08-19T04:39:50.148Z,77.99
2022-08-19T04:42:38.352Z,77.74
2022-08-19T04:45:14.565Z,78.00
2022-08-19T04:47:51.422Z,78.05
2022-08-19T04:50:25.745Z,78.13
2022-08-19T04:52:53.472Z,78.16
2022-08-19T04:55:20.677Z,77.95
2022-08-19T04:57:49.985Z,78.05
2022-08-19T05:00:17.200Z,77.98
2022-08-19T05:02:45.032Z,78.28
2022-08-19T05:05:12.139Z,78.19
2022-08-19T05:07:39.857Z,78.30
2022-08-19T05:10:07.706Z,78.33
2022-08-19T05:12:35.241Z,78.50
2022-08-19T05:15:06.740Z,78.41
2022-08-19T05:17:38.291Z,78.60
2022-08-19T05:20:27.150Z,78.45
2022-08-19T05:22:54.403Z,78.37
2022-08-19T05:25:22.982Z,78.42
2022-08-19T05:27:50.211Z,78.55
2022-08-19T05:30:18.199Z,78.80
2022-08-19T05:32:45.710Z,76.94
2022-08-19T05:35:13.282Z,72.30
2022-08-19T05:37:41.566Z,69.00
2022-08-19T05:40:10.331Z,66.78
2022-08-19T05:42:38.061Z,65.09
2022-08-19T05:45:05.807Z,64.13
2022-08-19T05:47:33.234Z,63.18
2022-08-19T05:50:02.778Z,62.34
2022-08-19T05:52:32.655Z,61.74
2022-08-19T05:55:00.603Z,61.05
2022-08-19T05:57:29.896Z,60.63
2022-08-19T05:59:59.215Z,60.22
2022-08-19T06:02:27.969Z,59.77
2022-08-19T06:04:55.033Z,59.31
2022-08-19T06:07:22.249Z,59.14
2022-08-19T06:10:00.269Z,58.96
2022-08-19T06:12:32.713Z,58.50
2022-08-19T06:15:02.446Z,58.23
2022-08-19T06:17:31.817Z,58.03
2022-08-19T06:20:00.236Z,57.89
2022-08-19T06:22:28.658Z,57.79
2022-08-19T06:24:56.606Z,57.71
2022-08-19T06:27:24.136Z,57.83
2022-08-19T06:29:51.209Z,57.37
2022-08-19T06:32:20.186Z,57.27
2022-08-19T06:34:47.521Z,57.17
2022-08-19T06:37:15.513Z,57.16
2022-08-19T06:39:45.426Z,57.02
2022-08-19T06:42:14.320Z,56.97
2022-08-19T06:44:48.069Z,56.82
2022-08-19T06:47:24.046Z,56.62
2022-08-19T06:50:03.235Z,56.73
2022-08-19T06:52:40.346Z,56.57
2022-08-19T06:55:08.872Z,56.49
2022-08-19T06:57:36.308Z,56.58
2022-08-19T07:00:07.911Z,56.39
2022-08-19T07:02:38.557Z,56.37
2022-08-19T07:05:06.778Z,56.31
2022-08-19T07:07:34.015Z,56.21
2022-08-19T07:10:03.715Z,56.17
2022-08-19T07:12:35.370Z,56.23
2022-08-19T07:15:06.164Z,56.10
2022-08-19T07:17:34.560Z,56.05
2022-08-19T07:20:06.786Z,56.15
2022-08-19T07:22:35.414Z,56.12
2022-08-19T07:25:06.321Z,56.26
2022-08-19T07:27:33.683Z,56.00
2022-08-19T07:30:01.697Z,56.10
2022-08-19T07:32:28.927Z,56.08
2022-08-19T07:34:56.935Z,56.00
2022-08-19T07:37:32.546Z,56.15
2022-08-19T07:40:02.014Z,55.97
2022-08-19T07:42:30.784Z,55.81
2022-08-19T07:44:59.395Z,55.90
2022-08-19T07:47:49.071Z,55.91
2022-08-19T07:50:15.818Z,55.83
2022-08-19T07:52:45.229Z,55.95
2022-08-19T07:55:41.390Z,56.06
2022-08-19T07:58:05.935Z,55.85
2022-08-19T08:00:33.248Z,55.71
2022-08-19T08:03:00.327Z,55.64
2022-08-19T08:05:45.921Z,55.75
2022-08-19T08:08:32.094Z,55.71
2022-08-19T08:11:00.506Z,55.79
2022-08-19T08:13:28.947Z,55.76
2022-08-19T08:15:57.904Z,55.93
2022-08-19T08:18:28.073Z,55.85
2022-08-19T08:20:58.923Z,55.82
2022-08-19T08:23:27.360Z,55.54
2022-08-19T08:25:58.138Z,55.28
2022-08-19T08:28:29.343Z,55.78
2022-08-19T08:30:58.999Z,55.97
2022-08-19T08:33:33.340Z,55.77
2022-08-19T08:36:06.166Z,56.62
2022-08-19T08:38:39.044Z,56.80
2022-08-19T08:41:38.059Z,55.91
2022-08-19T08:44:05.745Z,55.87
2022-08-19T08:46:46.857Z,55.57
2022-08-19T08:50:05.480Z,55.79
2022-08-19T08:52:39.435Z,57.21
2022-08-19T08:55:17.047Z,57.54
2022-08-19T08:57:56.098Z,56.37
2022-08-19T09:00:32.930Z,55.60
2022-08-19T09:03:03.103Z,56.33
2022-08-19T09:06:02.531Z,56.42
2022-08-19T09:09:11.663Z,56.91
2022-08-19T09:12:18.839Z,55.93
2022-08-19T09:15:07.251Z,57.13
2022-08-19T09:17:39.369Z,59.57
2022-08-19T09:20:24.322Z,58.02
2022-08-19T09:22:53.411Z,56.77
2022-08-19T09:25:26.760Z,59.79
2022-08-19T09:28:02.588Z,58.75
2022-08-19T09:30:35.920Z,57.10
2022-08-19T09:33:03.300Z,56.59
2022-08-19T09:35:32.045Z,56.22
2022-08-19T09:38:17.287Z,55.76
2022-08-19T09:40:44.548Z,55.58
2022-08-19T09:43:13.110Z,55.81
2022-08-19T09:45:41.092Z,55.49
2022-08-19T09:48:09.619Z,55.51
2022-08-19T09:50:51.251Z,55.61
2022-08-19T09:53:20.008Z,55.40
2022-08-19T09:55:47.374Z,55.68
2022-08-19T09:58:14.373Z,55.65
2022-08-19T10:00:41.433Z,55.70
2022-08-19T10:03:08.631Z,55.60
2022-08-19T10:05:54.607Z,55.73
2022-08-19T10:08:32.246Z,55.58
2022-08-19T10:10:59.773Z,55.76
2022-08-19T10:13:47.287Z,55.63
2022-08-19T10:16:23.231Z,55.54
2022-08-19T10:18:58.775Z,55.58
2022-08-19T10:21:33.957Z,55.97
2022-08-19T10:24:05.034Z,55.70
2022-08-19T10:26:38.028Z,55.53
2022-08-19T10:29:09.482Z,55.57
2022-08-19T10:31:59.695Z,55.76
2022-08-19T10:34:27.896Z,55.89
2022-08-19T10:37:01.341Z,56.02
2022-08-19T10:39:32.097Z,56.24
2022-08-19T10:42:00.567Z,56.10
2022-08-19T10:44:32.391Z,56.20
2022-08-19T10:47:00.977Z,56.00
2022-08-19T10:49:28.690Z,56.27
2022-08-19T10:52:18.585Z,56.10
2022-08-19T10:55:08.642Z,56.47
2022-08-19T10:57:59.282Z,56.21
2022-08-19T11:00:25.171Z,56.54
2022-08-19T11:02:52.997Z,56.15
2022-08-19T11:05:20.574Z,56.37
2022-08-19T11:07:52.752Z,57.13
2022-08-19T11:10:21.761Z,58.10
2022-08-19T11:12:49.774Z,56.92
2022-08-19T11:15:16.956Z,56.83
2022-08-19T11:17:45.032Z,56.64
2022-08-19T11:20:16.161Z,56.42
2022-08-19T11:22:43.363Z,57.99
2022-08-19T11:25:12.093Z,57.51
2022-08-19T11:27:45.729Z,61.52
2022-08-19T11:30:14.819Z,58.51
2022-08-19T11:32:47.106Z,57.67
2022-08-19T11:35:17.152Z,57.51
2022-08-19T11:37:44.321Z,57.53
2022-08-19T11:40:12.394Z,57.17
2022-08-19T11:42:57.759Z,56.73
2022-08-19T11:45:28.039Z,57.57
2022-08-19T11:47:55.495Z,57.64
2022-08-19T11:50:24.526Z,58.12
2022-08-19T11:52:55.618Z,57.02
2022-08-19T11:55:22.852Z,58.01
2022-08-19T11:57:50.350Z,59.43
2022-08-19T12:00:17.786Z,57.74
2022-08-19T12:02:44.912Z,57.12
2022-08-19T12:05:13.087Z,57.02
2022-08-19T12:07:42.442Z,56.75
2022-08-19T12:10:10.790Z,56.36
2022-08-19T12:12:43.484Z,56.67
2022-08-19T12:15:12.070Z,59.06
2022-08-19T12:17:39.656Z,57.55
2022-08-19T12:20:09.825Z,58.67
2022-08-19T12:22:38.708Z,62.32
2022-08-19T12:25:07.112Z,59.99
2022-08-19T12:27:40.707Z,58.17
2022-08-19T12:30:12.819Z,57.35
2022-08-19T12:32:40.104Z,57.37
2022-08-19T12:35:10.203Z,60.27
2022-08-19T12:37:37.308Z,57.31
2022-08-19T12:40:05.350Z,57.05
2022-08-19T12:42:32.407Z,56.69
2022-08-19T12:44:59.520Z,57.61
2022-08-19T12:47:27.548Z,58.87
2022-08-19T12:49:55.976Z,58.46
2022-08-19T12:52:28.465Z,56.98
2022-08-19T12:54:57.786Z,56.80
2022-08-19T12:57:32.306Z,56.52
2022-08-19T13:00:11.700Z,63.00
2022-08-19T13:02:44.852Z,58.31
2022-08-19T13:05:21.935Z,57.76
2022-08-19T13:07:50.039Z,57.10
2022-08-19T13:10:21.453Z,56.70
2022-08-19T13:12:52.155Z,56.87
2022-08-19T13:15:24.135Z,57.36
2022-08-19T13:17:54.796Z,56.65
2022-08-19T13:20:23.162Z,56.77
2022-08-19T13:22:50.979Z,60.79
2022-08-19T13:25:20.506Z,61.52
2022-08-19T13:27:49.424Z,58.39
2022-08-19T13:30:38.324Z,57.18
2022-08-19T13:33:12.792Z,64.36
2022-08-19T13:35:57.019Z,62.21
2022-08-19T13:38:25.038Z,59.16
2022-08-19T13:40:54.298Z,57.22
2022-08-19T13:43:26.392Z,57.35
2022-08-19T13:45:58.800Z,63.22
2022-08-19T13:48:28.031Z,62.41
2022-08-19T13:50:55.315Z,59.93
2022-08-19T13:53:22.530Z,59.73
2022-08-19T13:55:51.429Z,58.28
2022-08-19T13:58:18.624Z,57.95
2022-08-19T14:00:47.741Z,57.74
2022-08-19T14:03:14.908Z,58.50
2022-08-19T14:05:42.196Z,57.41
2022-08-19T14:08:10.296Z,57.40
2022-08-19T14:10:37.380Z,56.99
2022-08-19T14:13:05.510Z,58.91
2022-08-19T14:15:33.274Z,57.21
2022-08-19T14:18:00.728Z,56.67
2022-08-19T14:20:27.929Z,56.45
2022-08-19T14:22:56.536Z,56.23
2022-08-19T14:25:28.954Z,56.47
2022-08-19T14:27:57.560Z,60.15
2022-08-19T14:30:33.413Z,57.27
2022-08-19T14:33:02.947Z,56.76
2022-08-19T14:35:35.319Z,56.36
2022-08-19T14:38:07.388Z,57.42
2022-08-19T14:40:35.714Z,56.30
2022-08-19T14:43:05.436Z,56.44
2022-08-19T14:45:36.813Z,58.01
2022-08-19T14:48:08.570Z,59.46
2022-08-19T14:50:45.868Z,56.78
2022-08-19T14:53:13.616Z,57.23
2022-08-19T14:55:46.421Z,59.08
2022-08-19T14:58:29.696Z,57.78
2022-08-19T15:01:00.292Z,57.96
2022-08-19T15:03:28.914Z,59.36
2022-08-19T15:05:57.513Z,59.91
2022-08-19T15:08:25.972Z,60.99
2022-08-19T15:10:53.592Z,61.31
2022-08-19T15:13:20.644Z,61.49
2022-08-19T15:15:48.955Z,61.06
2022-08-19T15:18:16.291Z,61.89
2022-08-19T15:20:44.519Z,62.48
2022-08-19T15:23:18.705Z,65.53
2022-08-19T15:25:46.003Z,67.70
2022-08-19T15:28:13.572Z,68.97
2022-08-19T15:30:41.837Z,70.15
2022-08-19T15:33:09.005Z,70.51
2022-08-19T15:35:36.136Z,71.06
2022-08-19T15:38:03.298Z,71.29
2022-08-19T15:40:30.414Z,71.27
2022-08-19T15:42:58.140Z,71.40
2022-08-19T15:45:32.979Z,72.43
2022-08-19T15:48:04.520Z,71.73
2022-08-19T15:50:32.296Z,71.24
2022-08-19T15:53:06.576Z,71.86
2022-08-19T15:55:37.465Z,71.92
2022-08-19T15:58:29.345Z,71.81
2022-08-19T16:01:24.420Z,72.43
2022-08-19T16:04:15.805Z,72.28
2022-08-19T16:06:49.848Z,72.11
2022-08-19T16:09:24.929Z,72.92
2022-08-19T16:12:01.721Z,71.79
2022-08-19T16:14:32.824Z,71.75
2022-08-19T16:17:00.064Z,71.05
2022-08-19T16:19:27.392Z,71.34
2022-08-19T16:21:57.087Z,70.43
2022-08-19T16:24:28.027Z,70.07
2022-08-19T16:26:55.895Z,70.38
2022-08-19T16:29:34.058Z,70.33
2022-08-19T16:32:12.310Z,70.11
2022-08-19T16:34:41.424Z,70.92
2022-08-19T16:37:10.236Z,70.32
2022-08-19T16:39:37.942Z,70.39
2022-08-19T16:42:07.695Z,70.33
2022-08-19T16:44:40.300Z,70.23
2022-08-19T16:47:07.840Z,70.15
2022-08-19T16:49:53.210Z,69.63
2022-08-19T16:52:26.961Z,70.23
2022-08-19T16:54:54.380Z,70.37
2022-08-19T16:57:23.836Z,70.79
2022-08-19T16:59:52.392Z,71.29
2022-08-19T17:02:23.331Z,71.41
2022-08-19T17:04:58.383Z,71.99
2022-08-19T17:07:33.363Z,71.96
2022-08-19T17:10:03.169Z,72.52
2022-08-19T17:12:32.016Z,72.93
2022-08-19T17:15:02.541Z,72.59
2022-08-19T17:17:31.375Z,72.98
2022-08-19T17:20:00.708Z,73.40
2022-08-19T17:22:28.046Z,73.89
2022-08-19T17:24:56.394Z,74.50
2022-08-19T17:27:31.493Z,74.80
2022-08-19T17:30:04.738Z,75.15
2022-08-19T17:32:35.633Z,74.93
2022-08-19T17:35:04.840Z,74.94
2022-08-19T17:37:32.713Z,75.27
2022-08-19T17:40:01.245Z,75.86
2022-08-19T17:42:28.364Z,75.59
2022-08-19T17:44:59.575Z,75.15
2022-08-19T17:47:27.640Z,75.08
2022-08-19T17:49:54.800Z,74.80
2022-08-19T17:52:22.119Z,75.02
2022-08-19T17:54:49.234Z,74.97
2022-08-19T17:57:16.506Z,75.15
2022-08-19T17:59:43.658Z,75.28
2022-08-19T18:02:12.100Z,75.56
2022-08-19T18:04:39.750Z,75.32
2022-08-19T18:07:06.960Z,75.65
2022-08-19T18:09:42.326Z,75.67
2022-08-19T18:12:14.079Z,76.00
2022-08-19T18:14:42.466Z,76.28
2022-08-19T18:17:17.281Z,76.06
2022-08-19T18:19:45.154Z,76.28
2022-08-19T18:22:30.690Z,76.34
2022-08-19T18:24:59.175Z,76.50
2022-08-19T18:27:27.797Z,76.78
2022-08-19T18:29:59.230Z,77.14
2022-08-19T18:32:36.677Z,77.42
2022-08-19T18:35:16.576Z,77.60
2022-08-19T18:37:45.360Z,77.94
2022-08-19T18:40:39.773Z,78.06
2022-08-19T18:43:19.744Z,78.19
2022-08-19T18:46:07.119Z,78.29
2022-08-19T18:48:53.526Z,77.95
2022-08-19T18:51:23.279Z,78.34
2022-08-19T18:53:53.026Z,78.60
2022-08-19T18:56:21.517Z,78.55
2022-08-19T18:58:50.414Z,78.92
2022-08-19T19:01:26.372Z,78.80
2022-08-19T19:03:54.706Z,78.91
2022-08-19T19:06:29.924Z,79.07
2022-08-19T19:08:58.050Z,79.00
2022-08-19T19:11:37.243Z,79.18
2022-08-19T19:14:19.213Z,79.11
2022-08-19T19:17:02.063Z,79.02
2022-08-19T19:19:31.169Z,79.39
2022-08-19T19:21:59.254Z,79.47
2022-08-19T19:24:30.704Z,79.48
2022-08-19T19:27:01.087Z,79.53
2022-08-19T19:29:28.392Z,79.58
2022-08-19T19:31:56.089Z,79.67
2022-08-19T19:34:29.744Z,79.62
2022-08-19T19:36:57.295Z,79.72
2022-08-19T19:39:30.605Z,79.75
2022-08-19T19:42:20.349Z,79.85
2022-08-19T19:44:51.641Z,79.63
2022-08-19T19:47:21.555Z,79.53
2022-08-19T19:52:39.968Z,79.80
2022-08-19T19:55:09.535Z,79.83
2022-08-19T19:57:37.457Z,79.92
2022-08-19T20:00:07.093Z,79.93
2022-08-19T20:02:34.532Z,79.72
2022-08-19T20:05:01.601Z,80.15
2022-08-19T20:07:47.460Z,80.16
2022-08-19T20:10:14.870Z,80.21
2022-08-19T20:12:41.913Z,79.94
2022-08-19T20:15:09.343Z,79.70
2022-08-19T20:17:41.289Z,79.87
2022-08-19T20:20:11.666Z,80.04
2022-08-19T20:22:40.462Z,80.12
2022-08-19T20:25:11.466Z,80.10
2022-08-19T20:27:39.796Z,80.34
2022-08-19T20:30:13.686Z,80.53
2022-08-19T20:32:46.892Z,80.72
2022-08-19T20:35:19.042Z,80.72
2022-08-19T20:37:46.074Z,80.78
2022-08-19T20:40:15.179Z,80.93
2022-08-19T20:42:44.404Z,80.80
2022-08-19T20:45:32.396Z,81.07
2022-08-19T20:48:03.190Z,81.29
2022-08-19T20:50:32.274Z,81.18
2022-08-19T20:53:00.696Z,81.20
2022-08-19T20:55:30.311Z,81.02
2022-08-19T20:57:58.696Z,81.33
2022-08-19T21:00:26.012Z,81.17
2022-08-19T21:02:53.025Z,81.27
2022-08-19T21:05:20.032Z,81.53
2022-08-19T21:07:47.065Z,81.61
2022-08-19T21:10:15.366Z,81.42
2022-08-19T21:12:44.357Z,81.34
2022-08-19T21:15:11.567Z,81.39
2022-08-19T21:17:38.625Z,81.50
2022-08-19T21:20:09.071Z,81.43
2022-08-19T21:22:36.750Z,81.67
2022-08-19T21:25:05.642Z,81.53
2022-08-19T21:27:32.959Z,81.67
2022-08-19T21:30:00.060Z,81.62
2022-08-19T21:32:27.213Z,81.54
2022-08-19T21:34:54.338Z,81.49
2022-08-19T21:37:25.104Z,81.60
2022-08-19T21:39:53.465Z,81.69
2022-08-19T21:42:20.534Z,81.70
2022-08-19T21:44:47.698Z,81.53
2022-08-19T21:47:14.735Z,81.69
2022-08-19T21:49:41.881Z,81.87
2022-08-19T21:52:09.344Z,81.95
2022-08-19T21:54:38.105Z,81.96
2022-08-19T21:57:10.180Z,81.97
2022-08-19T21:59:43.835Z,81.99
2022-08-19T22:02:21.449Z,82.35
2022-08-19T22:04:51.451Z,82.13
2022-08-19T22:07:20.589Z,82.17
2022-08-19T22:09:50.499Z,82.00
2022-08-19T22:12:25.130Z,82.37
2022-08-19T22:14:53.229Z,82.55
2022-08-19T22:17:21.012Z,82.44
2022-08-19T22:19:48.223Z,82.53
2022-08-19T22:22:31.856Z,82.46
2022-08-19T22:25:08.941Z,82.59
2022-08-19T22:27:36.610Z,82.53
2022-08-19T22:30:10.148Z,82.54
2022-08-19T22:32:38.007Z,82.49
2022-08-19T22:35:08.609Z,82.49
2022-08-19T22:37:35.684Z,82.29
2022-08-19T22:40:05.662Z,82.12
2022-08-19T22:42:33.074Z,82.11
2022-08-19T22:45:00.350Z,82.23
2022-08-19T22:47:30.220Z,82.19
2022-08-19T22:50:04.245Z,82.14
2022-08-19T22:52:31.856Z,82.25
2022-08-19T22:55:04.621Z,82.58
2022-08-19T22:57:31.639Z,82.63
2022-08-19T22:59:58.929Z,82.50
2022-08-19T23:02:38.538Z,82.63
2022-08-19T23:05:18.792Z,82.52
2022-08-19T23:07:52.370Z,82.91
2022-08-19T23:10:26.928Z,82.97
2022-08-19T23:12:57.818Z,82.77
2022-08-19T23:15:29.665Z,82.77
2022-08-19T23:18:00.147Z,83.08
2022-08-19T23:20:32.978Z,83.19
2022-08-19T23:23:04.560Z,83.41
2022-08-19T23:25:34.366Z,83.49
2022-08-19T23:28:20.639Z,83.31
2022-08-19T23:30:50.545Z,83.34
2022-08-19T23:33:25.075Z,83.37
2022-08-19T23:36:00.889Z,83.48
2022-08-19T23:38:30.443Z,83.63
2022-08-19T23:41:02.301Z,83.44
2022-08-19T23:43:31.330Z,83.38
2022-08-19T23:46:03.668Z,83.28
2022-08-19T23:48:39.870Z,83.39
2022-08-19T23:51:11.131Z,82.99
2022-08-19T23:53:40.403Z,83.07
2022-08-19T23:56:10.305Z,83.29
2022-08-19T23:58:38.604Z,83.06
